createdAt,value
2023-01-21T00:02:34.214Z,33.60
2023-01-21T00:07:37.150Z,38.30
2023-01-21T00:12:40.103Z,35.03
2023-01-21T00:17:44.343Z,33.27
2023-01-21T00:22:47.286Z,35.40
2023-01-21T00:27:50.136Z,30.57
2023-01-21T00:32:54.693Z,39.40
2023-01-21T00:37:57.722Z,29.30
2023-01-21T00:43:00.641Z,36.30
2023-01-21T00:48:05.419Z,40.20
2023-01-21T00:53:08.285Z,27.40
2023-01-21T00:58:11.205Z,28.77
2023-01-21T01:03:15.623Z,27.33
2023-01-21T01:08:18.560Z,25.20
2023-01-21T01:13:21.486Z,31.93
2023-01-21T01:18:26.859Z,34.70
2023-01-21T01:23:30.078Z,44.73
2023-01-21T01:28:33.986Z,45.07
2023-01-21T01:33:38.318Z,37.53
2023-01-21T01:38:41.501Z,45.40
2023-01-21T01:43:54.101Z,49.83
2023-01-21T01:49:04.176Z,43.00
2023-01-21T01:54:08.570Z,38.43
2023-01-21T01:59:12.362Z,38.63
2023-01-21T02:04:21.926Z,34.90
2023-01-21T02:09:29.750Z,44.37
2023-01-21T02:14:34.097Z,41.33
2023-01-21T02:20:30.289Z,35.33
2023-01-21T02:25:56.788Z,31.73
2023-01-21T02:31:21.380Z,41.00
2023-01-21T02:36:36.559Z,48.83
2023-01-21T02:41:49.367Z,42.57
2023-01-21T02:46:56.833Z,45.97
2023-01-21T02:52:01.106Z,48.10
2023-01-21T02:57:04.520Z,40.80
2023-01-21T03:02:20.200Z,47.10
2023-01-21T03:07:32.575Z,34.00
2023-01-21T03:12:41.951Z,34.23
2023-01-21T03:17:50.076Z,36.13
2023-01-21T03:23:00.452Z,45.57
2023-01-21T03:28:07.656Z,28.33
2023-01-21T03:33:12.615Z,33.10
2023-01-21T03:38:22.888Z,33.27
2023-01-21T03:43:26.141Z,30.13
2023-01-21T03:48:37.312Z,28.43
2023-01-21T03:53:41.667Z,29.87
2023-01-21T03:58:44.612Z,26.67
2023-01-21T04:03:47.604Z,25.67
2023-01-21T04:08:52.028Z,25.17
2023-01-21T04:13:54.887Z,28.37
2023-01-21T04:18:58.178Z,27.20
2023-01-21T04:24:02.581Z,32.00
2023-01-21T04:29:05.525Z,28.13
2023-01-21T04:34:08.519Z,26.53
2023-01-21T04:39:12.809Z,35.63
2023-01-21T04:44:15.704Z,33.47
2023-01-21T04:49:18.586Z,28.50
2023-01-21T04:54:22.794Z,31.33
2023-01-21T04:59:25.746Z,29.37
2023-01-21T05:04:28.633Z,36.23
2023-01-21T05:09:32.871Z,28.93
2023-01-21T05:14:35.826Z,31.80
2023-01-21T05:19:38.811Z,26.40
2023-01-21T05:24:43.037Z,22.70
2023-01-21T05:29:45.921Z,28.20
2023-01-21T05:34:48.795Z,38.53
2023-01-21T05:39:53.020Z,36.03
2023-01-21T05:44:56.660Z,37.03
2023-01-21T05:49:59.530Z,30.90
2023-01-21T05:55:04.045Z,31.53
2023-01-21T06:00:08.674Z,38.40
2023-01-21T06:05:11.550Z,38.53
2023-01-21T06:10:16.751Z,37.60
2023-01-21T06:15:20.450Z,35.67
2023-01-21T06:20:23.309Z,31.30
2023-01-21T06:25:27.697Z,41.33
2023-01-21T06:30:30.725Z,36.33
2023-01-21T06:35:33.761Z,41.03
2023-01-21T06:40:37.989Z,49.70
2023-01-21T06:45:40.957Z,52.13
2023-01-21T06:50:43.961Z,46.30
2023-01-21T06:55:48.393Z,46.03
2023-01-21T07:00:51.246Z,39.93
2023-01-21T07:05:54.194Z,49.33
2023-01-21T07:10:58.422Z,47.77
2023-01-21T07:16:02.009Z,32.50
2023-01-21T07:21:05.068Z,37.60
2023-01-21T07:26:09.605Z,33.90
2023-01-21T07:31:13.824Z,31.43
2023-01-21T07:36:16.927Z,34.23
2023-01-21T07:41:21.252Z,28.67
2023-01-21T07:46:24.402Z,33.13
2023-01-21T07:51:27.350Z,35.00
2023-01-21T07:56:31.602Z,28.10
2023-01-21T08:01:34.707Z,31.93
2023-01-21T08:06:41.317Z,34.20
2023-01-21T08:11:45.838Z,45.17
2023-01-21T08:16:48.747Z,27.93
2023-01-21T08:21:52.337Z,35.40
2023-01-21T08:26:58.658Z,34.57
2023-01-21T08:32:01.589Z,37.30
2023-01-21T08:37:04.557Z,31.07
2023-01-21T08:42:08.779Z,36.10
2023-01-21T08:47:11.805Z,38.67
2023-01-21T08:52:15.796Z,38.40
2023-01-21T08:57:20.099Z,36.73
2023-01-21T09:02:23.120Z,41.57
2023-01-21T09:07:26.020Z,47.23
2023-01-21T09:12:30.255Z,31.80
2023-01-21T09:17:34.215Z,36.27
2023-01-21T09:22:37.146Z,37.77
2023-01-21T09:27:41.367Z,39.97
2023-01-21T09:32:44.249Z,33.40
2023-01-21T09:37:48.173Z,35.07
2023-01-21T09:42:52.411Z,34.60
2023-01-21T09:47:57.743Z,34.03
2023-01-21T09:53:05.757Z,36.60
2023-01-21T09:58:21.718Z,34.03
2023-01-21T10:03:32.815Z,31.20
2023-01-21T10:08:48.998Z,32.73
2023-01-21T10:14:05.785Z,31.83
2023-01-21T10:19:14.899Z,29.07
2023-01-21T10:24:22.176Z,31.30
2023-01-21T10:29:27.294Z,31.23
2023-01-21T10:34:32.369Z,38.90
2023-01-21T10:39:45.248Z,30.70
2023-01-21T10:44:58.004Z,26.70
2023-01-21T10:50:05.348Z,34.07
2023-01-21T10:55:25.298Z,31.80
2023-01-21T11:00:33.957Z,29.43
2023-01-21T11:05:39.102Z,24.93
2023-01-21T11:10:42.086Z,34.43
2023-01-21T11:15:51.401Z,29.33
2023-01-21T11:20:58.211Z,28.50
2023-01-21T11:26:08.765Z,28.50
2023-01-21T11:31:16.263Z,30.33
2023-01-21T11:36:21.067Z,27.60
2023-01-21T11:41:25.090Z,27.53
2023-01-21T11:46:36.734Z,25.00
2023-01-21T11:51:42.237Z,26.60
2023-01-21T11:56:55.659Z,27.30
2023-01-21T12:02:06.650Z,26.57
2023-01-21T12:07:19.726Z,31.33
2023-01-21T12:12:35.926Z,22.63
2023-01-21T12:17:52.042Z,28.53
2023-01-21T12:23:07.976Z,34.23
2023-01-21T12:28:47.455Z,27.07
2023-01-21T12:33:59.065Z,24.37
2023-01-21T12:39:19.618Z,28.93
2023-01-21T12:44:32.689Z,23.70
2023-01-21T12:49:56.455Z,27.07
2023-01-21T12:55:06.194Z,21.43
2023-01-21T13:00:18.461Z,22.40
2023-01-21T13:05:31.192Z,24.00
2023-01-21T13:10:38.284Z,25.97
2023-01-21T13:15:44.660Z,22.17
2023-01-21T13:20:53.765Z,24.43
2023-01-21T13:26:04.266Z,23.00
2023-01-21T13:31:13.416Z,20.90
2023-01-21T13:36:33.528Z,20.43
2023-01-21T13:41:50.686Z,21.47
2023-01-21T13:47:04.990Z,26.53
2023-01-21T13:52:15.999Z,27.77
2023-01-21T13:57:45.792Z,22.83
2023-01-21T14:02:56.959Z,22.10
2023-01-21T14:08:07.168Z,25.87
2023-01-21T14:13:39.893Z,39.77
2023-01-21T14:18:58.822Z,27.67
2023-01-21T14:24:19.344Z,23.13
2023-01-21T14:29:30.854Z,26.33
2023-01-21T14:34:42.124Z,26.10
2023-01-21T14:39:59.643Z,23.10
2023-01-21T14:45:06.088Z,21.70
2023-01-21T14:50:10.245Z,22.97
2023-01-21T14:55:28.732Z,20.63
2023-01-21T15:00:33.860Z,19.73
2023-01-21T15:05:38.099Z,23.23
2023-01-21T15:10:42.608Z,15.87
2023-01-21T15:16:05.384Z,22.67
2023-01-21T15:21:36.347Z,17.87
2023-01-21T15:26:42.323Z,14.20
2023-01-21T15:31:46.125Z,18.07
2023-01-21T15:36:53.319Z,17.90
2023-01-21T15:42:15.979Z,16.50
2023-01-21T15:47:50.694Z,20.57
2023-01-21T15:53:21.378Z,13.93
2023-01-21T15:58:38.950Z,17.00
2023-01-21T16:03:47.647Z,14.73
2023-01-21T16:09:03.060Z,19.17
2023-01-21T16:14:18.796Z,17.10
2023-01-21T16:19:24.021Z,12.40
2023-01-21T16:24:29.967Z,13.83
2023-01-21T16:29:39.368Z,10.70
2023-01-21T16:34:44.063Z,14.63
2023-01-21T16:39:47.035Z,11.83
2023-01-21T16:44:52.032Z,8.80
2023-01-21T16:49:54.913Z,9.93
2023-01-21T16:54:57.846Z,10.93
2023-01-21T17:00:02.773Z,12.17
2023-01-21T17:05:07.013Z,9.23
2023-01-21T17:10:21.547Z,9.90
2023-01-21T17:15:32.113Z,10.60
2023-01-21T17:20:42.299Z,10.63
2023-01-21T17:25:49.926Z,12.03
2023-01-21T17:31:09.753Z,9.50
2023-01-21T17:36:14.241Z,8.20
2023-01-21T17:41:25.710Z,8.67
2023-01-21T17:46:30.854Z,14.93
2023-01-21T17:51:35.141Z,11.53
2023-01-21T17:56:40.336Z,10.77
2023-01-21T18:01:44.628Z,7.90
2023-01-21T18:06:47.540Z,10.50
2023-01-21T18:11:52.928Z,8.57
2023-01-21T18:16:57.220Z,8.90
2023-01-21T18:22:00.968Z,9.83
2023-01-21T18:27:04.146Z,9.97
2023-01-21T18:32:11.668Z,7.00
2023-01-21T18:37:16.656Z,10.27
2023-01-21T18:42:19.614Z,8.40
2023-01-21T18:47:23.856Z,7.17
2023-01-21T18:52:26.834Z,10.23
2023-01-21T18:57:29.757Z,8.50
2023-01-21T19:02:34.091Z,7.50
2023-01-21T19:07:37.132Z,6.80
2023-01-21T19:12:40.106Z,11.20
2023-01-21T19:17:45.932Z,11.80
2023-01-21T19:22:49.727Z,11.27
2023-01-21T19:27:55.430Z,10.37
2023-01-21T19:33:01.753Z,9.37
2023-01-21T19:38:10.950Z,17.50
2023-01-21T19:43:14.489Z,13.73
2023-01-21T19:48:20.892Z,10.33
2023-01-21T19:53:24.071Z,31.47
2023-01-21T19:58:29.617Z,12.77
2023-01-21T20:03:33.895Z,9.27
2023-01-21T20:08:36.774Z,15.67
2023-01-21T20:13:39.722Z,11.47
2023-01-21T20:18:46.205Z,18.03
2023-01-21T20:23:49.124Z,9.70
2023-01-21T20:28:54.519Z,9.87
2023-01-21T20:33:58.934Z,15.87
2023-01-21T20:39:01.845Z,13.30
2023-01-21T20:44:04.858Z,9.90
2023-01-21T20:49:12.233Z,9.43
2023-01-21T20:54:15.134Z,11.00
2023-01-21T20:59:18.427Z,7.67
2023-01-21T21:04:24.843Z,10.00
2023-01-21T21:09:27.807Z,9.47
2023-01-21T21:14:30.718Z,9.43
2023-01-21T21:19:34.914Z,7.73
2023-01-21T21:24:37.825Z,13.70
2023-01-21T21:29:40.749Z,11.70
2023-01-21T21:34:45.001Z,8.50
2023-01-21T21:39:47.862Z,10.93
2023-01-21T21:44:50.778Z,12.40
2023-01-21T21:49:55.070Z,10.33
2023-01-21T21:54:57.954Z,15.57
2023-01-21T22:00:00.867Z,10.20
2023-01-21T22:05:05.621Z,76.13
2023-01-21T22:10:09.680Z,9.83
2023-01-21T22:15:12.845Z,10.10
2023-01-21T22:20:17.164Z,9.70
2023-01-21T22:25:20.496Z,8.20
2023-01-21T22:30:25.131Z,8.00
2023-01-21T22:35:29.460Z,10.20
2023-01-21T22:40:33.999Z,9.20
2023-01-21T22:45:37.031Z,8.47
2023-01-21T22:50:44.424Z,7.43
2023-01-21T22:55:53.990Z,9.10
2023-01-21T23:00:57.650Z,9.13
2023-01-21T23:06:06.464Z,8.73
2023-01-21T23:11:11.544Z,9.73
2023-01-21T23:16:17.223Z,8.50
2023-01-21T23:21:23.236Z,8.47
2023-01-21T23:26:26.126Z,8.90
2023-01-21T23:31:29.146Z,7.57
2023-01-21T23:36:33.543Z,7.30
2023-01-21T23:41:36.421Z,9.53
2023-01-21T23:46:39.450Z,7.63
2023-01-21T23:51:43.696Z,8.90
2023-01-21T23:56:46.587Z,11.83
